sensor_id;sensor_type;location;lat;lon;timestamp;pressure;altitude;pressure_sealevel;temperature
50206;BMP280;36098;48.390;10.856;2024-01-07T00:01:31;95265.16;;;21.54
50206;BMP280;36098;48.390;10.856;2024-01-07T00:03:57;95263.31;;;21.54
50206;BMP280;36098;48.390;10.856;2024-01-07T00:06:22;95262.25;;;21.55
50206;BMP280;36098;48.390;10.856;2024-01-07T00:08:47;95260.41;;;21.56
50206;BMP280;36098;48.390;10.856;2024-01-07T00:11:13;95258.84;;;21.55
50206;BMP280;36098;48.390;10.856;2024-01-07T00:13:38;95258.06;;;21.54
50206;BMP280;36098;48.390;10.856;2024-01-07T00:16:04;95266.22;;;21.53
50206;BMP280;36098;48.390;10.856;2024-01-07T00:18:29;95263.09;;;21.51
50206;BMP280;36098;48.390;10.856;2024-01-07T00:20:54;95259.16;;;21.48
50206;BMP280;36098;48.390;10.856;2024-01-07T00:23:19;95267.03;;;21.48
50206;BMP280;36098;48.390;10.856;2024-01-07T00:25:48;95262.09;;;21.47
50206;BMP280;36098;48.390;10.856;2024-01-07T00:28:14;95260.50;;;21.46
50206;BMP280;36098;48.390;10.856;2024-01-07T00:30:39;95260.78;;;21.44
50206;BMP280;36098;48.390;10.856;2024-01-07T00:33:04;95255.03;;;21.42
50206;BMP280;36098;48.390;10.856;2024-01-07T00:35:29;95259.50;;;21.42
50206;BMP280;36098;48.390;10.856;2024-01-07T00:37:55;95268.44;;;21.41
50206;BMP280;36098;48.390;10.856;2024-01-07T00:40:22;95264.22;;;21.40
50206;BMP280;36098;48.390;10.856;2024-01-07T00:42:47;95267.16;;;21.38
50206;BMP280;36098;48.390;10.856;2024-01-07T00:45:12;95256.91;;;21.37
50206;BMP280;36098;48.390;10.856;2024-01-07T00:47:38;95259.84;;;21.36
50206;BMP280;36098;48.390;10.856;2024-01-07T00:50:03;95260.09;;;21.34
50206;BMP280;36098;48.390;10.856;2024-01-07T00:52:29;95265.63;;;21.33
50206;BMP280;36098;48.390;10.856;2024-01-07T00:54:54;95265.63;;;21.33
50206;BMP280;36098;48.390;10.856;2024-01-07T00:57:19;95261.72;;;21.30
50206;BMP280;36098;48.390;10.856;2024-01-07T00:59:44;95265.41;;;21.29
50206;BMP280;36098;48.390;10.856;2024-01-07T01:02:10;95264.91;;;21.27
50206;BMP280;36098;48.390;10.856;2024-01-07T01:04:38;95262.28;;;21.27
50206;BMP280;36098;48.390;10.856;2024-01-07T01:07:04;95269.66;;;21.25
50206;BMP280;36098;48.390;10.856;2024-01-07T01:09:29;95262.03;;;21.24
50206;BMP280;36098;48.390;10.856;2024-01-07T01:11:54;95266.50;;;21.23
50206;BMP280;36098;48.390;10.856;2024-01-07T01:14:20;95270.19;;;21.22
50206;BMP280;36098;48.390;10.856;2024-01-07T01:16:45;95268.63;;;21.21
50206;BMP280;36098;48.390;10.856;2024-01-07T01:19:10;95272.59;;;21.19
50206;BMP280;36098;48.390;10.856;2024-01-07T01:21:35;95277.84;;;21.19
50206;BMP280;36098;48.390;10.856;2024-01-07T01:24:01;95273.66;;;21.18
50206;BMP280;36098;48.390;10.856;2024-01-07T01:26:26;95276.53;;;21.16
50206;BMP280;36098;48.390;10.856;2024-01-07T01:28:52;95279.44;;;21.15
50206;BMP280;36098;48.390;10.856;2024-01-07T01:31:17;95274.97;;;21.15
50206;BMP280;36098;48.390;10.856;2024-01-07T01:33:42;95272.63;;;21.14
50206;BMP280;36098;48.390;10.856;2024-01-07T01:36:08;95271.06;;;21.13
50206;BMP280;36098;48.390;10.856;2024-01-07T01:38:33;95267.91;;;21.11
50206;BMP280;36098;48.390;10.856;2024-01-07T01:40:58;95272.38;;;21.10
50206;BMP280;36098;48.390;10.856;2024-01-07T01:43:28;95270.81;;;21.09
50206;BMP280;36098;48.390;10.856;2024-01-07T01:45:55;95283.94;;;21.09
50206;BMP280;36098;48.390;10.856;2024-01-07T01:48:21;95278.19;;;21.07
50206;BMP280;36098;48.390;10.856;2024-01-07T01:50:47;95277.41;;;21.07
50206;BMP280;36098;48.390;10.856;2024-01-07T01:53:14;95277.69;;;21.05
50206;BMP280;36098;48.390;10.856;2024-01-07T01:55:39;95283.19;;;21.04
50206;BMP280;36098;48.390;10.856;2024-01-07T01:58:05;95277.19;;;21.03
50206;BMP280;36098;48.390;10.856;2024-01-07T02:00:31;95273.00;;;21.02
50206;BMP280;36098;48.390;10.856;2024-01-07T02:02:56;95274.81;;;21.02
50206;BMP280;36098;48.390;10.856;2024-01-07T02:05:21;95275.88;;;21.01
50206;BMP280;36098;48.390;10.856;2024-01-07T02:07:47;95275.06;;;21.00
50206;BMP280;36098;48.390;10.856;2024-01-07T02:10:12;95274.56;;;20.98
50206;BMP280;36098;48.390;10.856;2024-01-07T02:12:38;95279.81;;;20.98
50206;BMP280;36098;48.390;10.856;2024-01-07T02:15:04;95276.69;;;20.96
50206;BMP280;36098;48.390;10.856;2024-01-07T02:17:29;95278.53;;;20.96
50206;BMP280;36098;48.390;10.856;2024-01-07T02:19:54;95272.78;;;20.94
50206;BMP280;36098;48.390;10.856;2024-01-07T02:22:20;95283.28;;;20.94
50206;BMP280;36098;48.390;10.856;2024-01-07T02:24:45;95278.31;;;20.92
50206;BMP280;36098;48.390;10.856;2024-01-07T02:27:10;95270.44;;;20.92
50206;BMP280;36098;48.390;10.856;2024-01-07T02:29:36;95276.72;;;20.91
50206;BMP280;36098;48.390;10.856;2024-01-07T02:32:01;95277.78;;;20.90
50206;BMP280;36098;48.390;10.856;2024-01-07T02:34:26;95286.72;;;20.89
50206;BMP280;36098;48.390;10.856;2024-01-07T02:36:52;95278.34;;;20.87
50206;BMP280;36098;48.390;10.856;2024-01-07T02:39:17;95284.34;;;20.88
50206;BMP280;36098;48.390;10.856;2024-01-07T02:41:42;95282.03;;;20.86
50206;BMP280;36098;48.390;10.856;2024-01-07T02:44:07;95284.66;;;20.86
50206;BMP280;36098;48.390;10.856;2024-01-07T02:46:33;95282.03;;;20.86
50206;BMP280;36098;48.390;10.856;2024-01-07T02:48:58;95279.66;;;20.85
50206;BMP280;36098;48.390;10.856;2024-01-07T02:51:23;95277.31;;;20.83
50206;BMP280;36098;48.390;10.856;2024-01-07T02:53:48;95274.69;;;20.83
50206;BMP280;36098;48.390;10.856;2024-01-07T02:56:14;95274.94;;;20.82
50206;BMP280;36098;48.390;10.856;2024-01-07T02:58:39;95273.38;;;20.81
50206;BMP280;36098;48.390;10.856;2024-01-07T03:01:08;95272.56;;;20.80
50206;BMP280;36098;48.390;10.856;2024-01-07T03:03:34;95275.19;;;20.80
50206;BMP280;36098;48.390;10.856;2024-01-07T03:05:59;95269.44;;;20.78
50206;BMP280;36098;48.390;10.856;2024-01-07T03:08:25;95273.13;;;20.77
50206;BMP280;36098;48.390;10.856;2024-01-07T03:10:50;95276.81;;;20.76
50206;BMP280;36098;48.390;10.856;2024-01-07T03:13:15;95273.41;;;20.76
50206;BMP280;36098;48.390;10.856;2024-01-07T03:15:40;95272.91;;;20.74
50206;BMP280;36098;48.390;10.856;2024-01-07T03:18:06;95275.53;;;20.74
50206;BMP280;36098;48.390;10.856;2024-01-07T03:20:31;95282.59;;;20.73
50206;BMP280;36098;48.390;10.856;2024-01-07T03:22:56;95279.97;;;20.73
50206;BMP280;36098;48.390;10.856;2024-01-07T03:25:22;95281.03;;;20.72
50206;BMP280;36098;48.390;10.856;2024-01-07T03:27:47;95278.97;;;20.69
50206;BMP280;36098;48.390;10.856;2024-01-07T03:30:12;95273.72;;;20.69
50206;BMP280;36098;48.390;10.856;2024-01-07T03:32:37;95279.22;;;20.68
50206;BMP280;36098;48.390;10.856;2024-01-07T03:35:03;95276.59;;;20.68
50206;BMP280;36098;48.390;10.856;2024-01-07T03:37:28;95276.88;;;20.66
50206;BMP280;36098;48.390;10.856;2024-01-07T03:39:53;95281.34;;;20.66
50206;BMP280;36098;48.390;10.856;2024-01-07T03:42:19;95280.56;;;20.65
50206;BMP280;36098;48.390;10.856;2024-01-07T03:44:44;95281.63;;;20.64
50206;BMP280;36098;48.390;10.856;2024-01-07T03:47:10;95281.88;;;20.63
50206;BMP280;36098;48.390;10.856;2024-01-07T03:49:38;95282.69;;;20.63
50206;BMP280;36098;48.390;10.856;2024-01-07T03:52:05;95287.13;;;20.63
50206;BMP280;36098;48.390;10.856;2024-01-07T03:54:31;95279.50;;;20.61
50206;BMP280;36098;48.390;10.856;2024-01-07T03:56:56;95286.63;;;20.61
50206;BMP280;36098;48.390;10.856;2024-01-07T03:59:21;95287.16;;;20.58
50206;BMP280;36098;48.390;10.856;2024-01-07T04:01:48;95281.13;;;20.57
50206;BMP280;36098;48.390;10.856;2024-01-07T04:04:13;95283.75;;;20.57
50206;BMP280;36098;48.390;10.856;2024-01-07T04:06:39;95284.03;;;20.56
50206;BMP280;36098;48.390;10.856;2024-01-07T04:09:04;95288.47;;;20.55
50206;BMP280;36098;48.390;10.856;2024-01-07T04:11:29;95287.72;;;20.55
50206;BMP280;36098;48.390;10.856;2024-01-07T04:13:54;95285.34;;;20.53
50206;BMP280;36098;48.390;10.856;2024-01-07T04:16:20;95286.41;;;20.52
50206;BMP280;36098;48.390;10.856;2024-01-07T04:18:46;95299.50;;;20.52
50206;BMP280;36098;48.390;10.856;2024-01-07T04:21:12;95295.31;;;20.51
50206;BMP280;36098;48.390;10.856;2024-01-07T04:23:40;95292.97;;;20.50
50206;BMP280;36098;48.390;10.856;2024-01-07T04:26:07;95296.38;;;20.50
50206;BMP280;36098;48.390;10.856;2024-01-07T04:28:32;95297.44;;;20.49
50206;BMP280;36098;48.390;10.856;2024-01-07T04:30:57;95295.88;;;20.48
50206;BMP280;36098;48.390;10.856;2024-01-07T04:33:22;95295.88;;;20.48
50206;BMP280;36098;48.390;10.856;2024-01-07T04:35:48;95304.78;;;20.47
50206;BMP280;36098;48.390;10.856;2024-01-07T04:38:14;95305.84;;;20.46
50206;BMP280;36098;48.390;10.856;2024-01-07T04:40:39;95304.28;;;20.45
50206;BMP280;36098;48.390;10.856;2024-01-07T04:43:04;95311.34;;;20.45
50206;BMP280;36098;48.390;10.856;2024-01-07T04:45:29;95309.78;;;20.44
50206;BMP280;36098;48.390;10.856;2024-01-07T04:47:55;95314.25;;;20.43
50206;BMP280;36098;48.390;10.856;2024-01-07T04:50:20;95307.44;;;20.42
50206;BMP280;36098;48.390;10.856;2024-01-07T04:52:46;95313.47;;;20.43
50206;BMP280;36098;48.390;10.856;2024-01-07T04:55:11;95322.38;;;20.42
50206;BMP280;36098;48.390;10.856;2024-01-07T04:57:37;95315.56;;;20.41
50206;BMP280;36098;48.390;10.856;2024-01-07T05:00:03;95325.25;;;20.40
50206;BMP280;36098;48.390;10.856;2024-01-07T05:02:29;95322.63;;;20.40
50206;BMP280;36098;48.390;10.856;2024-01-07T05:04:54;95327.88;;;20.40
50206;BMP280;36098;48.390;10.856;2024-01-07T05:07:19;95326.59;;;20.38
50206;BMP280;36098;48.390;10.856;2024-01-07T05:09:44;95329.47;;;20.36
50206;BMP280;36098;48.390;10.856;2024-01-07T05:12:10;95328.44;;;20.37
50206;BMP280;36098;48.390;10.856;2024-01-07T05:14:35;95333.97;;;20.36
50206;BMP280;36098;48.390;10.856;2024-01-07T05:17:02;95339.19;;;20.36
50206;BMP280;36098;48.390;10.856;2024-01-07T05:19:27;95342.06;;;20.34
50206;BMP280;36098;48.390;10.856;2024-01-07T05:21:53;95337.63;;;20.35
50206;BMP280;36098;48.390;10.856;2024-01-07T05:24:18;95343.13;;;20.33
50206;BMP280;36098;48.390;10.856;2024-01-07T05:26:44;95343.13;;;20.33
50206;BMP280;36098;48.390;10.856;2024-01-07T05:29:10;95345.25;;;20.31
50206;BMP280;36098;48.390;10.856;2024-01-07T05:31:37;95342.09;;;20.29
50206;BMP280;36098;48.390;10.856;2024-01-07T05:34:02;95340.25;;;20.30
50206;BMP280;36098;48.390;10.856;2024-01-07T05:36:28;95343.94;;;20.29
50206;BMP280;36098;48.390;10.856;2024-01-07T05:38:53;95343.94;;;20.29
50206;BMP280;36098;48.390;10.856;2024-01-07T05:41:19;95350.50;;;20.26
50206;BMP280;36098;48.390;10.856;2024-01-07T05:43:44;95352.09;;;20.27
50206;BMP280;36098;48.390;10.856;2024-01-07T05:46:09;95347.09;;;20.26
50206;BMP280;36098;48.390;10.856;2024-01-07T05:48:47;95354.97;;;20.26
50206;BMP280;36098;48.390;10.856;2024-01-07T05:51:13;95353.38;;;20.25
50206;BMP280;36098;48.390;10.856;2024-01-07T05:53:40;95352.63;;;20.24
50206;BMP280;36098;48.390;10.856;2024-01-07T05:56:05;95361.53;;;20.23
50206;BMP280;36098;48.390;10.856;2024-01-07T05:58:31;95359.94;;;20.22
50206;BMP280;36098;48.390;10.856;2024-01-07T06:00:56;95368.84;;;20.21
50206;BMP280;36098;48.390;10.856;2024-01-07T06:03:21;95366.25;;;20.21
50206;BMP280;36098;48.390;10.856;2024-01-07T06:05:47;95374.09;;;20.21
50206;BMP280;36098;48.390;10.856;2024-01-07T06:08:12;95363.63;;;20.21
50206;BMP280;36098;48.390;10.856;2024-01-07T06:10:38;95374.34;;;20.25
50206;BMP280;36098;48.390;10.856;2024-01-07T06:13:04;95369.59;;;20.32
50206;BMP280;36098;48.390;10.856;2024-01-07T06:15:29;95369.31;;;20.38
50206;BMP280;36098;48.390;10.856;2024-01-07T06:17:54;95365.13;;;20.42
50206;BMP280;36098;48.390;10.856;2024-01-07T06:20:20;95366.41;;;20.45
50206;BMP280;36098;48.390;10.856;2024-01-07T06:22:46;95364.53;;;20.55
50206;BMP280;36098;48.390;10.856;2024-01-07T06:25:11;95378.69;;;20.64
50206;BMP280;36098;48.390;10.856;2024-01-07T06:27:38;95383.88;;;20.74
50206;BMP280;36098;48.390;10.856;2024-01-07T06:30:04;95376.22;;;20.83
50206;BMP280;36098;48.390;10.856;2024-01-07T06:32:30;95374.84;;;20.95
50206;BMP280;36098;48.390;10.856;2024-01-07T06:34:57;95386.06;;;21.06
50206;BMP280;36098;48.390;10.856;2024-01-07T06:37:22;95376.28;;;21.16
50206;BMP280;36098;48.390;10.856;2024-01-07T06:39:47;95378.03;;;21.31
50206;BMP280;36098;48.390;10.856;2024-01-07T06:42:12;95378.25;;;21.34
50206;BMP280;36098;48.390;10.856;2024-01-07T06:44:38;95380.59;;;21.40
50206;BMP280;36098;48.390;10.856;2024-01-07T06:47:03;95386.81;;;21.49
50206;BMP280;36098;48.390;10.856;2024-01-07T06:49:28;95388.63;;;21.54
50206;BMP280;36098;48.390;10.856;2024-01-07T06:51:53;95389.88;;;21.61
50206;BMP280;36098;48.390;10.856;2024-01-07T06:54:19;95391.41;;;21.72
50206;BMP280;36098;48.390;10.856;2024-01-07T06:56:44;95393.72;;;21.74
50206;BMP280;36098;48.390;10.856;2024-01-07T06:59:09;95397.38;;;21.78
50206;BMP280;36098;48.390;10.856;2024-01-07T07:01:36;95402.81;;;21.86
50206;BMP280;36098;48.390;10.856;2024-01-07T07:04:01;95393.34;;;21.90
50206;BMP280;36098;48.390;10.856;2024-01-07T07:06:26;95394.78;;;22.01
50206;BMP280;36098;48.390;10.856;2024-01-07T07:08:51;95404.75;;;22.04
50206;BMP280;36098;48.390;10.856;2024-01-07T07:11:17;95405.53;;;22.05
50206;BMP280;36098;48.390;10.856;2024-01-07T07:13:42;95401.56;;;22.07
50206;BMP280;36098;48.390;10.856;2024-01-07T07:16:07;95405.53;;;22.05
50206;BMP280;36098;48.390;10.856;2024-01-07T07:18:33;95406.63;;;22.04
50206;BMP280;36098;48.390;10.856;2024-01-07T07:20:58;95414.50;;;22.04
50206;BMP280;36098;48.390;10.856;2024-01-07T07:23:23;95412.88;;;22.08
50206;BMP280;36098;48.390;10.856;2024-01-07T07:25:48;95416.56;;;22.07
50206;BMP280;36098;48.390;10.856;2024-01-07T07:28:13;95427.84;;;22.07
50206;BMP280;36098;48.390;10.856;2024-01-07T07:30:39;95414.63;;;22.17
50206;BMP280;36098;48.390;10.856;2024-01-07T07:33:04;95422.38;;;22.27
50206;BMP280;36098;48.390;10.856;2024-01-07T07:35:29;95423.09;;;22.38
50206;BMP280;36098;48.390;10.856;2024-01-07T07:37:55;95427.25;;;22.44
50206;BMP280;36098;48.390;10.856;2024-01-07T07:40:20;95432.91;;;22.56
50206;BMP280;36098;48.390;10.856;2024-01-07T07:42:45;95436.50;;;22.65
50206;BMP280;36098;48.390;10.856;2024-01-07T07:45:11;95436.72;;;22.68
50206;BMP280;36098;48.390;10.856;2024-01-07T07:47:36;95447.47;;;22.72
50206;BMP280;36098;48.390;10.856;2024-01-07T07:50:01;95444.75;;;22.77
50206;BMP280;36098;48.390;10.856;2024-01-07T07:52:28;95459.44;;;22.83
50206;BMP280;36098;48.390;10.856;2024-01-07T07:54:53;95448.78;;;22.93
50206;BMP280;36098;48.390;10.856;2024-01-07T07:57:18;95445.03;;;22.99
50206;BMP280;36098;48.390;10.856;2024-01-07T07:59:45;95450.50;;;23.02
50206;BMP280;36098;48.390;10.856;2024-01-07T08:02:11;95454.13;;;23.11
50206;BMP280;36098;48.390;10.856;2024-01-07T08:04:37;95446.22;;;23.11
50206;BMP280;36098;48.390;10.856;2024-01-07T08:07:02;95450.66;;;23.11
50206;BMP280;36098;48.390;10.856;2024-01-07T08:09:27;95459.63;;;23.10
50206;BMP280;36098;48.390;10.856;2024-01-07T08:11:53;95453.63;;;23.04
50206;BMP280;36098;48.390;10.856;2024-01-07T08:14:18;95468.44;;;23.00
50206;BMP280;36098;48.390;10.856;2024-01-07T08:16:43;95467.66;;;23.00
50206;BMP280;36098;48.390;10.856;2024-01-07T08:19:09;95457.13;;;23.00
50206;BMP280;36098;48.390;10.856;2024-01-07T08:21:34;95473.47;;;22.97
50206;BMP280;36098;48.390;10.856;2024-01-07T08:24:00;95471.91;;;22.96
50206;BMP280;36098;48.390;10.856;2024-01-07T08:26:25;95480.38;;;22.93
50206;BMP280;36098;48.390;10.856;2024-01-07T08:28:50;95478.81;;;22.92
50206;BMP280;36098;48.390;10.856;2024-01-07T08:31:16;95477.25;;;22.91
50206;BMP280;36098;48.390;10.856;2024-01-07T08:33:41;95483.56;;;22.90
50206;BMP280;36098;48.390;10.856;2024-01-07T08:36:07;95484.91;;;22.87
50206;BMP280;36098;48.390;10.856;2024-01-07T08:38:32;95494.16;;;22.85
50206;BMP280;36098;48.390;10.856;2024-01-07T08:40:57;95492.09;;;22.82
50206;BMP280;36098;48.390;10.856;2024-01-07T08:43:23;95488.97;;;22.80
50206;BMP280;36098;48.390;10.856;2024-01-07T08:45:49;95498.97;;;22.78
50206;BMP280;36098;48.390;10.856;2024-01-07T08:48:14;95497.41;;;22.77
50206;BMP280;36098;48.390;10.856;2024-01-07T08:50:40;95502.16;;;22.75
50206;BMP280;36098;48.390;10.856;2024-01-07T08:53:05;95497.19;;;22.73
50206;BMP280;36098;48.390;10.856;2024-01-07T08:55:31;95506.91;;;22.73
50206;BMP280;36098;48.390;10.856;2024-01-07T08:57:56;95502.22;;;22.70
50206;BMP280;36098;48.390;10.856;2024-01-07T09:00:21;95510.41;;;22.68
50206;BMP280;36098;48.390;10.856;2024-01-07T09:02:51;95518.06;;;22.65
50206;BMP280;36098;48.390;10.856;2024-01-07T09:05:16;95513.63;;;22.60
50206;BMP280;36098;48.390;10.856;2024-01-07T09:07:41;95520.75;;;22.60
50206;BMP280;36098;48.390;10.856;2024-01-07T09:10:07;95519.47;;;22.57
50206;BMP280;36098;48.390;10.856;2024-01-07T09:12:36;95522.34;;;22.56
50206;BMP280;36098;48.390;10.856;2024-01-07T09:15:01;95527.41;;;22.52
50206;BMP280;36098;48.390;10.856;2024-01-07T09:17:26;95529.53;;;22.50
50206;BMP280;36098;48.390;10.856;2024-01-07T09:19:52;95535.56;;;22.51
50206;BMP280;36098;48.390;10.856;2024-01-07T09:22:17;95537.69;;;22.49
50206;BMP280;36098;48.390;10.856;2024-01-07T09:24:42;95535.13;;;22.44
50206;BMP280;36098;48.390;10.856;2024-01-07T09:27:08;95538.56;;;22.39
50206;BMP280;36098;48.390;10.856;2024-01-07T09:29:33;95538.31;;;22.36
50206;BMP280;36098;48.390;10.856;2024-01-07T09:31:58;95535.16;;;22.34
50206;BMP280;36098;48.390;10.856;2024-01-07T09:34:24;95541.78;;;22.31
50206;BMP280;36098;48.390;10.856;2024-01-07T09:36:49;95541.53;;;22.28
50206;BMP280;36098;48.390;10.856;2024-01-07T09:39:15;95548.94;;;22.26
50206;BMP280;36098;48.390;10.856;2024-01-07T09:41:40;95551.81;;;22.24
50206;BMP280;36098;48.390;10.856;2024-01-07T09:44:06;95546.34;;;22.21
50206;BMP280;36098;48.390;10.856;2024-01-07T09:46:34;95551.88;;;22.19
50206;BMP280;36098;48.390;10.856;2024-01-07T09:49:02;95547.94;;;22.17
50206;BMP280;36098;48.390;10.856;2024-01-07T09:51:28;95547.41;;;22.15
50206;BMP280;36098;48.390;10.856;2024-01-07T09:53:57;95550.34;;;22.13
50206;BMP280;36098;48.390;10.856;2024-01-07T09:56:25;95554.28;;;22.11
50206;BMP280;36098;48.390;10.856;2024-01-07T09:58:51;95548.53;;;22.09
50206;BMP280;36098;48.390;10.856;2024-01-07T10:01:19;95552.22;;;22.08
50206;BMP280;36098;48.390;10.856;2024-01-07T10:03:45;95543.81;;;22.06
50206;BMP280;36098;48.390;10.856;2024-01-07T10:06:11;95550.41;;;22.03
50206;BMP280;36098;48.390;10.856;2024-01-07T10:08:37;95548.06;;;22.02
50206;BMP280;36098;48.390;10.856;2024-01-07T10:11:02;95553.84;;;21.99
50206;BMP280;36098;48.390;10.856;2024-01-07T10:13:28;95550.72;;;21.97
50206;BMP280;36098;48.390;10.856;2024-01-07T10:15:53;95555.75;;;21.93
50206;BMP280;36098;48.390;10.856;2024-01-07T10:18:19;95557.59;;;21.93
50206;BMP280;36098;48.390;10.856;2024-01-07T10:20:45;95552.63;;;21.91
50206;BMP280;36098;48.390;10.856;2024-01-07T10:23:10;95553.13;;;21.88
50206;BMP280;36098;48.390;10.856;2024-01-07T10:25:36;95553.44;;;21.87
50206;BMP280;36098;48.390;10.856;2024-01-07T10:28:02;95553.69;;;21.85
50206;BMP280;36098;48.390;10.856;2024-01-07T10:30:29;95551.34;;;21.84
50206;BMP280;36098;48.390;10.856;2024-01-07T10:32:58;95554.53;;;21.81
50206;BMP280;36098;48.390;10.856;2024-01-07T10:35:27;95554.00;;;21.79
50206;BMP280;36098;48.390;10.856;2024-01-07T10:37:53;95552.41;;;21.78
50206;BMP280;36098;48.390;10.856;2024-01-07T10:40:19;95552.97;;;21.75
50206;BMP280;36098;48.390;10.856;2024-01-07T10:42:44;95557.47;;;21.74
50206;BMP280;36098;48.390;10.856;2024-01-07T10:45:10;95560.09;;;21.74
50206;BMP280;36098;48.390;10.856;2024-01-07T10:47:36;95564.78;;;21.77
50206;BMP280;36098;48.390;10.856;2024-01-07T10:50:02;95568.44;;;21.81
50206;BMP280;36098;48.390;10.856;2024-01-07T10:52:28;95561.31;;;21.87
50206;BMP280;36098;48.390;10.856;2024-01-07T10:54:56;95563.34;;;21.95
50206;BMP280;36098;48.390;10.856;2024-01-07T10:57:46;95566.19;;;22.03
50206;BMP280;36098;48.390;10.856;2024-01-07T11:00:13;95573.25;;;22.08
50206;BMP280;36098;48.390;10.856;2024-01-07T11:03:04;95572.69;;;22.11
50206;BMP280;36098;48.390;10.856;2024-01-07T11:05:40;95572.69;;;22.11
50206;BMP280;36098;48.390;10.856;2024-01-07T11:08:15;95567.44;;;22.11
50206;BMP280;36098;48.390;10.856;2024-01-07T11:10:48;95574.28;;;22.12
50206;BMP280;36098;48.390;10.856;2024-01-07T11:13:36;95571.38;;;22.13
50206;BMP280;36098;48.390;10.856;2024-01-07T11:16:03;95572.16;;;22.14
50206;BMP280;36098;48.390;10.856;2024-01-07T11:18:28;95573.72;;;22.15
50206;BMP280;36098;48.390;10.856;2024-01-07T11:21:00;95566.88;;;22.14
50206;BMP280;36098;48.390;10.856;2024-01-07T11:23:33;95576.34;;;22.15
50206;BMP280;36098;48.390;10.856;2024-01-07T11:26:00;95562.44;;;22.14
50206;BMP280;36098;48.390;10.856;2024-01-07T11:31:24;95564.00;;;22.15
50206;BMP280;36098;48.390;10.856;2024-01-07T11:33:58;95573.22;;;22.13
50206;BMP280;36098;48.390;10.856;2024-01-07T11:36:23;95572.16;;;22.14
50206;BMP280;36098;48.390;10.856;2024-01-07T11:38:50;95577.97;;;22.11
50206;BMP280;36098;48.390;10.856;2024-01-07T11:41:16;95571.69;;;22.07
50206;BMP280;36098;48.390;10.856;2024-01-07T11:43:56;95579.06;;;22.05
50206;BMP280;36098;48.390;10.856;2024-01-07T11:46:24;95574.34;;;22.02
50206;BMP280;36098;48.390;10.856;2024-01-07T11:48:53;95577.25;;;22.00
50206;BMP280;36098;48.390;10.856;2024-01-07T11:51:24;95572.81;;;21.96
50206;BMP280;36098;48.390;10.856;2024-01-07T11:53:49;95579.41;;;21.93
50206;BMP280;36098;48.390;10.856;2024-01-07T11:56:15;95573.34;;;21.93
50206;BMP280;36098;48.390;10.856;2024-01-07T11:58:41;95571.53;;;21.88
50206;BMP280;36098;48.390;10.856;2024-01-07T12:01:06;95569.72;;;21.89
50206;BMP280;36098;48.390;10.856;2024-01-07T12:03:32;95575.22;;;21.87
50206;BMP280;36098;48.390;10.856;2024-01-07T12:05:57;95579.41;;;21.88
50206;BMP280;36098;48.390;10.856;2024-01-07T12:08:22;95579.13;;;21.95
50206;BMP280;36098;48.390;10.856;2024-01-07T12:10:49;95580.44;;;21.97
50206;BMP280;36098;48.390;10.856;2024-01-07T12:13:14;95582.75;;;22.04
50206;BMP280;36098;48.390;10.856;2024-01-07T12:15:40;95585.59;;;22.07
50206;BMP280;36098;48.390;10.856;2024-01-07T12:18:05;95586.34;;;22.13
50206;BMP280;36098;48.390;10.856;2024-01-07T12:20:31;95582.63;;;22.19
50206;BMP280;36098;48.390;10.856;2024-01-07T12:22:57;95592.13;;;22.20
50206;BMP280;36098;48.390;10.856;2024-01-07T12:25:29;95590.50;;;22.24
50206;BMP280;36098;48.390;10.856;2024-01-07T12:27:55;95595.47;;;22.25
50206;BMP280;36098;48.390;10.856;2024-01-07T12:30:20;95589.66;;;22.28
50206;BMP280;36098;48.390;10.856;2024-01-07T12:32:46;95593.88;;;22.29
50206;BMP280;36098;48.390;10.856;2024-01-07T12:35:11;95594.91;;;22.28
50206;BMP280;36098;48.390;10.856;2024-01-07T12:37:37;95595.72;;;22.29
50206;BMP280;36098;48.390;10.856;2024-01-07T12:40:03;95595.72;;;22.29
50206;BMP280;36098;48.390;10.856;2024-01-07T12:42:29;95597.28;;;22.30
50206;BMP280;36098;48.390;10.856;2024-01-07T12:44:54;95602.53;;;22.30
50206;BMP280;36098;48.390;10.856;2024-01-07T12:47:19;95606.22;;;22.29
50206;BMP280;36098;48.390;10.856;2024-01-07T12:49:45;95617.56;;;22.29
50206;BMP280;36098;48.390;10.856;2024-01-07T12:52:10;95611.50;;;22.29
50206;BMP280;36098;48.390;10.856;2024-01-07T12:54:37;95610.19;;;22.26
50206;BMP280;36098;48.390;10.856;2024-01-07T12:57:03;95610.19;;;22.26
50206;BMP280;36098;48.390;10.856;2024-01-07T12:59:29;95614.69;;;22.26
50206;BMP280;36098;48.390;10.856;2024-01-07T13:01:54;95616.00;;;22.23
50206;BMP280;36098;48.390;10.856;2024-01-07T13:04:19;95618.63;;;22.23
50206;BMP280;36098;48.390;10.856;2024-01-07T13:06:45;95624.69;;;22.24
50206;BMP280;36098;48.390;10.856;2024-01-07T13:09:10;95625.25;;;22.21
50206;BMP280;36098;48.390;10.856;2024-01-07T13:11:36;95633.91;;;22.21
50206;BMP280;36098;48.390;10.856;2024-01-07T13:14:01;95626.31;;;22.20
50206;BMP280;36098;48.390;10.856;2024-01-07T13:16:27;95630.50;;;22.21
50206;BMP280;36098;48.390;10.856;2024-01-07T13:18:53;95628.63;;;22.21
50206;BMP280;36098;48.390;10.856;2024-01-07T13:21:18;95633.13;;;22.21
50206;BMP280;36098;48.390;10.856;2024-01-07T13:23:44;95626.81;;;22.22
50206;BMP280;36098;48.390;10.856;2024-01-07T13:26:10;95633.63;;;22.23
50206;BMP280;36098;48.390;10.856;2024-01-07T13:28:35;95650.47;;;22.22
50206;BMP280;36098;48.390;10.856;2024-01-07T13:31:01;95639.72;;;22.18
50206;BMP280;36098;48.390;10.856;2024-01-07T13:33:26;95647.59;;;22.18
50206;BMP280;36098;48.390;10.856;2024-01-07T13:35:52;95645.53;;;22.15
50206;BMP280;36098;48.390;10.856;2024-01-07T13:38:17;95648.91;;;22.16
50206;BMP280;36098;48.390;10.856;2024-01-07T13:40:42;95652.59;;;22.15
50206;BMP280;36098;48.390;10.856;2024-01-07T13:43:08;95654.72;;;22.13
50206;BMP280;36098;48.390;10.856;2024-01-07T13:45:33;95658.94;;;22.14
50206;BMP280;36098;48.390;10.856;2024-01-07T13:47:58;95656.53;;;22.17
50206;BMP280;36098;48.390;10.856;2024-01-07T13:50:24;95659.69;;;22.19
50206;BMP280;36098;48.390;10.856;2024-01-07T13:52:49;95666.53;;;22.20